Alejandro López

Olheiro - Athletic Bilbao
8 Jan 2028
Sábado
Processo

Personalidade

Adaptabilidade (7) Ambição (8) Controvérsia (9) Lealdade (12) Pressão (3) Profissionalismo (11) Espírito Esportivo (20) Temperamento (1)

Perfil

Estilo de Treinamento Democrático
Licença Continental C
Determinação 6
Gestão de Pessoas 7
Motivação 14
Disciplina 10
Satisfação no Trabalho
100%
Fadiga
0%
Função Olheiro
Salário 61.8K p/s
Contrato 14.03.2030

Desempenho

Comportamento Bom
Eficácia do Treinamento
56%
Desenvolvimento do Jogador
35%
Prevenção de Lesões
35%
Implementação Tática
30%

Eventos Recentes

Participou de uma reunião de recrutamento agora
Recomendou um alvo de transferência agora
Participou de uma reunião de recrutamento agora
Participou de uma reunião de recrutamento agora
Participou de uma reunião de recrutamento 7d atrás
Participou de uma reunião de recrutamento 7d atrás
Apresentou um dossiê à direção 7d atrás
Apresentou um dossiê à direção 7d atrás

Monitorando agora

75
Jogador Clube Status Habilidade Confiança Observado Última observação Último voto
Adrián Liso Zaragoza Perdido 131 / 135 79% 1 01.01.2028 -
Jay Robinson Southampton Ativo 124 / 131 40% 1 31.05.2027 -
Shea Lacey Millwall Ativo 127 / 125 40% 1 31.05.2027 -
Juanlu Bournemouth Ativo 144 / 147 40% 2 27.05.2027 -
Nico González Newcastle United Ativo 156 / 164 40% 1 27.05.2027 Mais informações
Lewis Hall Newcastle United Ativo 143 / 153 40% 1 27.05.2027 -
Pau Navarro Villarreal Ativo 142 / 145 40% 3 18.05.2027 -
Willian Pacho Juventus Ativo 170 / 164 40% 2 18.05.2027 -
Tino Livramento Newcastle United Ativo 156 / 154 40% 2 18.05.2027 -
William Saliba Arsenal Ativo 171 / 177 40% 2 16.05.2027 -
Boubacar Kamara Aston Villa Ativo 165 / 162 40% 1 16.05.2027 Mais informações
Ryan Sessegnon Fulham Ativo 142 / 141 40% 1 16.05.2027 -
Pedro Porro Tottenham Ativo 146 / 151 40% 7 15.05.2027 -
Jarrad Branthwaite Everton Ativo 153 / 157 40% 2 14.05.2027 -
Adrien Truffert Bournemouth Ativo 156 / 154 40% 1 14.05.2027 -
Alberto Costa Porto Ativo 148 / 148 40% 1 10.05.2027 -
Jeremie Frimpong Liverpool Ativo 159 / 160 40% 1 10.05.2027 -
Sven Botman Newcastle United Ativo 163 / 156 40% 1 08.05.2027 -
Adam Wharton Crystal Palace Ativo 154 / 154 40% 1 05.05.2027 -
Gavi Barcelona Ativo 153 / 165 40% 1 01.05.2027 -
Oumar Solet Udinese Ativo 142 / 151 40% 1 30.04.2027 -
Evan N'Dicka AS Roma Ativo 154 / 157 40% 1 30.04.2027 -
Joško Gvardiol Manchester City Ativo 162 / 161 40% 3 28.04.2027 -
Pablo Barrios Atlético Madrid Ativo 151 / 165 40% 1 28.04.2027 -
Alex Scott Bournemouth Ativo 147 / 156 40% 1 28.04.2027 -
Tuerto Sevilla Ativo 151 / 150 40% 2 26.04.2027 -
Marc Guéhi Manchester City Ativo 164 / 168 40% 2 26.04.2027 -
Khéphren Thuram Juventus Ativo 162 / 159 40% 1 20.04.2027 Mais informações
Antonio Blanco Alavés Ativo 142 / 144 40% 1 19.04.2027 -
Óscar Mingueza Crystal Palace Ativo 153 / 153 40% 1 19.04.2027 -
Jurriën Timber Arsenal Ativo 158 / 166 40% 1 19.04.2027 -
Javi Rodríguez Celta Ativo 146 / 145 40% 1 16.04.2027 -
Manu Koné AS Roma Ativo 161 / 158 40% 1 12.04.2027 Mais informações
Dani Rodríguez Leganés Ativo 134 / 135 76% 1 03.01.2027 -
Brian Gutiérrez Guadalajara Ativo 137 / 137 40% 2 29.12.2026 -
Kevin Fulham Ativo 155 / 152 40% 1 29.12.2026 -
Sidiki Chérif Coventry City Ativo 127 / 126 40% 2 28.12.2026 -
Warren Zaïre-Emery Paris Saint-Germain Ativo 155 / 167 40% 1 27.12.2026 -
Agustín Ruberto River Plate Ativo 123 / 129 40% 6 26.12.2026 -
Yusi Alavés Ativo 130 / 132 40% 2 26.12.2026 -
Sergi Domínguez Dinamo Zagreb Ativo 127 / 129 40% 1 25.12.2026 -
Christos Mouzakitis Hull City Ativo 123 / 136 40% 1 25.12.2026 -
Mario Soriano Deportivo La Coruña Ativo 132 / 135 30% 1 / 1m 23.12.2026 -
Santiago Fernández Eibar Ativo 113 / 123 40% 1 22.12.2026 -
Toni Tamarit Alverca Ativo 115 / 115 40% 3 16.12.2026 -
Jeff Ekhator Juventus Ativo 130 / 135 40% 1 16.12.2026 -
Alex Luna Instituto Ativo 133 / 130 40% 2 10.12.2026 -
Enzo Loiodice KAA Gent Ativo 130 / 130 40% 1 10.12.2026 -
Yeremy Pino Crystal Palace Ativo 145 / 151 40% 2 09.12.2026 -
Aarón Molinas Defensa y Justicia Ativo 132 / 123 40% 1 09.12.2026 -
Kang-In Lee Atlético Madrid Ativo 160 / 159 40% 1 09.12.2026 -
Stefanos Tzimas Brighton Ativo 137 / 135 40% 2 08.12.2026 -
Helinho Toluca Ativo 134 / 136 40% 1 07.12.2026 -
Gaspar Gijón Ativo 142 / 135 40% 1 07.12.2026 -
Diego Lainez Tigres Ativo 123 / 121 40% 1 06.12.2026 -
Carlos Álvarez Club America Ativo 131 / 139 40% 1 06.12.2026 -
Carlos Vicente Udinese Ativo 141 / 144 40% 1 02.12.2026 -
Pedri Barcelona Ativo 175 / 181 40% 1 02.12.2026 -
Martín Zubimendi Arsenal Ativo 160 / 164 40% 1 01.12.2026 -
Álex Baena Atlético Madrid Ativo 167 / 162 40% 1 01.12.2026 -
Thiago Almada Fiorentina Ativo 145 / 147 40% 1 29.11.2026 -
Samuel Lucero Defensa y Justicia Ativo 118 / 116 40% 1 28.11.2026 -
Joel Godoy Sarmiento Ativo 106 / 117 40% 1 26.11.2026 -
Halam Loboa Independiente Medellin Ativo 116 / 123 40% 1 26.11.2026 -
Tiziano Dornell Almagro Ativo 118 / 118 40% 4 21.11.2026 -
Dilan Godoy Vélez Ativo 113 / 116 40% 2 19.11.2026 -
Matías Fernández-Pardo Newcastle United Ativo 134 / 138 40% 1 19.11.2026 -
Sindre Walle Egeli Nottingham Forest Ativo 129 / 132 40% 1 18.11.2026 -
El Hadji Malick Diouf Brentford Ativo 135 / 147 40% 1 18.11.2026 -
Mihailo Ivanović Millwall Ativo 117 / 129 40% 1 12.11.2026 -
Mathys Tel Stade Rennais Ativo 139 / 144 40% 3 29.10.2026 -
Xavier Biscayzacú Sporting CP Ativo 125 / 130 40% 1 15.10.2026 -
Thalys Almería Ativo 113 / 123 40% 1 17.09.2026 -
Santiago Castro AS Roma Ativo 141 / 150 40% 1 07.09.2026 -
Jeremy Toljan Levante Ativo 136 / 133 76% 1 03.08.2026 Aprovar